メインページ
METAR-TAF:

METAR-TAF

空港 :

能登空港

輪島, 日本

緯度: 37-17-36N, 経度: 136-57-44E, 海抜: 219m

現時点の気象観測

当レポートは1時間0分前の07:00(UTC)に作成
西の風 3kt、南/南西から北/北西の間で変化する
気温 30°C
湿度 59%
気圧 1010 hPa
視程10km以上
1,500メートル以下は雲なし、積乱雲なし

METAR: RJNW 180700Z 26003KT 210V330 CAVOK 30/21 Q1010

時間: 17:00 (08:00 UTC)


TAF: 見つかりません

4,000以上の空港の気象観測と天気予報(METAR報とTAF報)

利用可能な観測所は地図上に黄色い丸と赤い丸で示す。

丸の上にカーソルを重ねると観測所名を参照できる。

次にクリックすると気象観測と天気予報を参照できる。

マップの切り替え:黒色「×」印の緑ボタンをクリックして拡大、「-」印の緑ボタンをクリックして縮小、緑色の三角印をクリックして隣りの地図に切り替え


METAR-TAF: